Terminal Aerodrome Forecast
Issued by NWS Cleveland, OH

Home | Current Version | Previous Version | Text Only | Print | Product List | Glossary Off
Versions: 1 2 3 4 5 6 7 8 9 10 11 12 13 14 15 16 17 18 19 20 21 22

000
FTUS41 KCLE 151100
TAFMFD
TAF
KMFD 151120Z 1512/1612 VRB03KT P6SM FEW100
     FM151400 19005KT P6SM SCT100 BKN250
     FM151800 20008KT P6SM SCT035 OVC070
     FM152330 25006KT P6SM -RA OVC035
     FM160500 30004KT 4SM BR OVC010
     FM160900 29005KT 2SM BR OVC003=

USA.gov is the U.S. government's official web portal to all federal, state and local government web resources and services.